Terminal Aerodrome Forecast
Issued by NWS

Home | Current Version | Previous Version | Text Only | Print | Product List | Glossary On
Versions: 1 2 3 4 5 6 7 8 9 10 11 12 13 14 15 16 17 18 19
000
FTUS43 KDLH 201600 AAA
TAFHYR
TAF AMD
KHYR 201617Z 2016/2112 17007KT 3SM -SN BR OVC012
     FM210300 18005KT 4SM -SN BR OVC007=

USA.gov is the U.S. government's official web portal to all federal, state and local government web resources and services.